sensor_id;sensor_type;location;lat;lon;timestamp;pressure;altitude;pressure_sealevel;temperature;humidity
76114;BME280;64845;53.086;5.834;2023-02-15T00:00:41;103035.97;;;1.40;77.19
76114;BME280;64845;53.086;5.834;2023-02-15T00:03:06;103030.59;;;1.37;77.24
76114;BME280;64845;53.086;5.834;2023-02-15T00:05:32;103026.03;;;1.31;76.92
76114;BME280;64845;53.086;5.834;2023-02-15T00:07:57;103038.16;;;1.28;77.17
76114;BME280;64845;53.086;5.834;2023-02-15T00:10:23;103026.59;;;1.23;77.36
76114;BME280;64845;53.086;5.834;2023-02-15T00:12:48;103015.97;;;1.19;77.06
76114;BME280;64845;53.086;5.834;2023-02-15T00:15:14;103022.88;;;1.16;76.87
76114;BME280;64845;53.086;5.834;2023-02-15T00:17:39;103026.16;;;1.10;77.03
76114;BME280;64845;53.086;5.834;2023-02-15T00:20:05;103025.72;;;0.98;77.45
76114;BME280;64845;53.086;5.834;2023-02-15T00:22:30;103019.19;;;0.86;77.46
76114;BME280;64845;53.086;5.834;2023-02-15T00:24:56;103014.66;;;0.82;76.66
76114;BME280;64845;53.086;5.834;2023-02-15T00:27:21;103022.38;;;0.78;77.07
76114;BME280;64845;53.086;5.834;2023-02-15T00:29:47;103023.94;;;0.72;76.66
76114;BME280;64845;53.086;5.834;2023-02-15T00:32:12;103018.53;;;0.69;76.88
76114;BME280;64845;53.086;5.834;2023-02-15T00:34:38;103010.66;;;0.69;76.74
76114;BME280;64845;53.086;5.834;2023-02-15T00:37:03;103009.81;;;0.70;77.25
76114;BME280;64845;53.086;5.834;2023-02-15T00:39:28;102997.63;;;0.72;77.31
76114;BME280;64845;53.086;5.834;2023-02-15T00:41:54;102995.97;;;0.74;77.60
76114;BME280;64845;53.086;5.834;2023-02-15T00:44:19;102993.44;;;0.78;77.40
76114;BME280;64845;53.086;5.834;2023-02-15T00:46:44;102993.50;;;0.79;77.59
76114;BME280;64845;53.086;5.834;2023-02-15T00:49:10;102990.03;;;0.80;77.64
76114;BME280;64845;53.086;5.834;2023-02-15T00:51:35;102977.75;;;0.81;77.72
76114;BME280;64845;53.086;5.834;2023-02-15T00:54:01;102984.81;;;0.82;77.25
76114;BME280;64845;53.086;5.834;2023-02-15T00:56:26;102986.47;;;0.80;77.51
76114;BME280;64845;53.086;5.834;2023-02-15T00:58:53;102986.44;;;0.78;77.52
76114;BME280;64845;53.086;5.834;2023-02-15T01:01:19;102985.47;;;0.76;77.60
76114;BME280;64845;53.086;5.834;2023-02-15T01:03:46;102987.22;;;0.75;77.66
76114;BME280;64845;53.086;5.834;2023-02-15T01:06:13;102976.63;;;0.74;77.52
76114;BME280;64845;53.086;5.834;2023-02-15T01:08:39;102982.81;;;0.74;77.31
76114;BME280;64845;53.086;5.834;2023-02-15T01:11:06;102976.72;;;0.75;77.59
76114;BME280;64845;53.086;5.834;2023-02-15T01:13:32;102976.75;;;0.77;77.73
76114;BME280;64845;53.086;5.834;2023-02-15T01:15:57;102988.19;;;0.78;77.68
76114;BME280;64845;53.086;5.834;2023-02-15T01:18:23;102979.44;;;0.79;77.86
76114;BME280;64845;53.086;5.834;2023-02-15T01:20:49;102975.06;;;0.79;77.86
76114;BME280;64845;53.086;5.834;2023-02-15T01:23:14;102969.81;;;0.79;77.42
76114;BME280;64845;53.086;5.834;2023-02-15T01:25:39;102969.78;;;0.78;77.84
76114;BME280;64845;53.086;5.834;2023-02-15T01:28:05;102965.34;;;0.77;77.76
76114;BME280;64845;53.086;5.834;2023-02-15T01:30:31;102969.66;;;0.74;77.84
76114;BME280;64845;53.086;5.834;2023-02-15T01:32:57;102965.25;;;0.73;77.91
76114;BME280;64845;53.086;5.834;2023-02-15T01:35:23;102955.56;;;0.72;77.43
76114;BME280;64845;53.086;5.834;2023-02-15T01:37:48;102956.44;;;0.73;77.72
76114;BME280;64845;53.086;5.834;2023-02-15T01:40:16;102959.97;;;0.73;77.62
76114;BME280;64845;53.086;5.834;2023-02-15T01:42:42;102958.19;;;0.72;77.92
76114;BME280;64845;53.086;5.834;2023-02-15T01:45:26;102950.22;;;0.71;77.80
76114;BME280;64845;53.086;5.834;2023-02-15T01:50:34;102944.94;;;0.69;77.68
76114;BME280;64845;53.086;5.834;2023-02-15T01:53:11;102944.94;;;0.69;77.88
76114;BME280;64845;53.086;5.834;2023-02-15T01:55:43;102936.19;;;0.70;77.85
76114;BME280;64845;53.086;5.834;2023-02-15T01:58:10;102937.03;;;0.69;77.50
76114;BME280;64845;53.086;5.834;2023-02-15T02:00:36;102927.34;;;0.68;77.49
76114;BME280;64845;53.086;5.834;2023-02-15T02:03:03;102915.97;;;0.68;78.17
76114;BME280;64845;53.086;5.834;2023-02-15T02:05:29;102919.44;;;0.67;77.79
76114;BME280;64845;53.086;5.834;2023-02-15T02:07:57;102914.09;;;0.65;78.15
76114;BME280;64845;53.086;5.834;2023-02-15T02:10:24;102905.31;;;0.65;77.56
76114;BME280;64845;53.086;5.834;2023-02-15T02:12:52;102909.69;;;0.64;78.08
76114;BME280;64845;53.086;5.834;2023-02-15T02:15:27;102907.88;;;0.63;77.91
76114;BME280;64845;53.086;5.834;2023-02-15T02:18:07;102906.09;;;0.62;77.59
76114;BME280;64845;53.086;5.834;2023-02-15T02:28:39;102891.00;;;0.56;78.12
76114;BME280;64845;53.086;5.834;2023-02-15T02:31:20;102876.91;;;0.54;77.58
76114;BME280;64845;53.086;5.834;2023-02-15T02:36:34;102873.41;;;0.54;77.50
76114;BME280;64845;53.086;5.834;2023-02-15T02:47:09;102878.53;;;0.51;77.67
76114;BME280;64845;53.086;5.834;2023-02-15T02:49:42;102882.84;;;0.49;77.66
76114;BME280;64845;53.086;5.834;2023-02-15T02:58:03;102874.81;;;0.44;77.87
76114;BME280;64845;53.086;5.834;2023-02-15T03:00:46;102876.47;;;0.42;78.07
76114;BME280;64845;53.086;5.834;2023-02-15T03:03:18;102874.69;;;0.41;77.79
76114;BME280;64845;53.086;5.834;2023-02-15T03:05:47;102868.47;;;0.39;77.90
76114;BME280;64845;53.086;5.834;2023-02-15T03:08:17;102866.69;;;0.38;77.70
76114;BME280;64845;53.086;5.834;2023-02-15T03:10:47;102861.38;;;0.36;77.74
76114;BME280;64845;53.086;5.834;2023-02-15T03:13:13;102852.59;;;0.36;77.98
76114;BME280;64845;53.086;5.834;2023-02-15T03:15:41;102858.69;;;0.35;77.58
76114;BME280;64845;53.086;5.834;2023-02-15T03:18:29;102854.25;;;0.34;77.63
76114;BME280;64845;53.086;5.834;2023-02-15T03:20:57;102855.94;;;0.32;78.03
76114;BME280;64845;53.086;5.834;2023-02-15T03:23:27;102847.09;;;0.29;77.96
76114;BME280;64845;53.086;5.834;2023-02-15T03:26:02;102849.69;;;0.28;77.97
76114;BME280;64845;53.086;5.834;2023-02-15T03:28:42;102845.28;;;0.27;77.85
76114;BME280;64845;53.086;5.834;2023-02-15T03:31:12;102838.22;;;0.26;77.85
76114;BME280;64845;53.086;5.834;2023-02-15T03:33:44;102840.81;;;0.24;77.87
76114;BME280;64845;53.086;5.834;2023-02-15T03:36:29;102840.75;;;0.23;77.76
76114;BME280;64845;53.086;5.834;2023-02-15T03:39:33;102835.44;;;0.21;77.60
76114;BME280;64845;53.086;5.834;2023-02-15T03:42:09;102837.13;;;0.19;77.97
76114;BME280;64845;53.086;5.834;2023-02-15T03:44:50;102836.28;;;0.20;77.76
76114;BME280;64845;53.086;5.834;2023-02-15T03:47:19;102830.13;;;0.20;78.05
76114;BME280;64845;53.086;5.834;2023-02-15T03:49:50;102828.41;;;0.20;77.68
76114;BME280;64845;53.086;5.834;2023-02-15T03:52:18;102830.13;;;0.20;78.08
76114;BME280;64845;53.086;5.834;2023-02-15T03:54:45;102831.88;;;0.19;77.60
76114;BME280;64845;53.086;5.834;2023-02-15T03:57:20;102831.91;;;0.21;77.86
76114;BME280;64845;53.086;5.834;2023-02-15T04:00:12;102822.22;;;0.20;78.17
76114;BME280;64845;53.086;5.834;2023-02-15T04:03:08;102812.63;;;0.20;78.07
76114;BME280;64845;53.086;5.834;2023-02-15T04:05:35;102812.63;;;0.20;78.06
76114;BME280;64845;53.086;5.834;2023-02-15T04:08:01;102814.34;;;0.20;77.90
76114;BME280;64845;53.086;5.834;2023-02-15T04:10:27;102807.34;;;0.19;77.75
76114;BME280;64845;53.086;5.834;2023-02-15T04:13:10;102810.81;;;0.18;77.67
76114;BME280;64845;53.086;5.834;2023-02-15T04:15:36;102799.38;;;0.17;78.06
76114;BME280;64845;53.086;5.834;2023-02-15T04:18:20;102816.91;;;0.17;78.00
76114;BME280;64845;53.086;5.834;2023-02-15T04:20:46;102815.97;;;0.16;77.88
76114;BME280;64845;53.086;5.834;2023-02-15T04:23:32;102808.06;;;0.14;77.96
76114;BME280;64845;53.086;5.834;2023-02-15T04:26:16;102801.03;;;0.13;77.72
76114;BME280;64845;53.086;5.834;2023-02-15T04:28:42;102807.09;;;0.12;78.08
76114;BME280;64845;53.086;5.834;2023-02-15T04:31:07;102812.28;;;0.11;78.07
76114;BME280;64845;53.086;5.834;2023-02-15T04:33:33;102803.47;;;0.09;78.06
76114;BME280;64845;53.086;5.834;2023-02-15T04:35:59;102808.78;;;0.10;78.04
76114;BME280;64845;53.086;5.834;2023-02-15T04:38:24;102805.19;;;0.08;78.20
76114;BME280;64845;53.086;5.834;2023-02-15T04:40:51;102809.63;;;0.09;78.09
76114;BME280;64845;53.086;5.834;2023-02-15T04:43:20;102796.44;;;0.08;78.10
76114;BME280;64845;53.086;5.834;2023-02-15T04:45:49;102796.44;;;0.08;78.29
76114;BME280;64845;53.086;5.834;2023-02-15T04:48:16;102801.63;;;0.06;78.47
76114;BME280;64845;53.086;5.834;2023-02-15T04:50:41;102789.31;;;0.05;78.13
76114;BME280;64845;53.086;5.834;2023-02-15T04:53:07;102795.41;;;0.04;78.18
76114;BME280;64845;53.086;5.834;2023-02-15T04:55:32;102791.00;;;0.03;78.05
76114;BME280;64845;53.086;5.834;2023-02-15T04:57:58;102782.25;;;0.03;78.17
76114;BME280;64845;53.086;5.834;2023-02-15T05:00:23;102782.25;;;0.03;78.47
76114;BME280;64845;53.086;5.834;2023-02-15T05:02:48;102780.44;;;0.02;77.99
76114;BME280;64845;53.086;5.834;2023-02-15T05:05:14;102767.34;;;0.03;78.00
76114;BME280;64845;53.086;5.834;2023-02-15T05:07:40;102773.44;;;0.02;78.10
76114;BME280;64845;53.086;5.834;2023-02-15T05:10:06;102766.41;;;0.01;78.24
76114;BME280;64845;53.086;5.834;2023-02-15T05:12:32;102770.91;;;0.04;78.29
76114;BME280;64845;53.086;5.834;2023-02-15T05:14:57;102767.44;;;0.05;78.34
76114;BME280;64845;53.086;5.834;2023-02-15T05:17:22;102764.81;;;0.05;78.64
76114;BME280;64845;53.086;5.834;2023-02-15T05:19:48;102763.97;;;0.06;78.46
76114;BME280;64845;53.086;5.834;2023-02-15T05:22:13;102761.34;;;0.06;78.28
76114;BME280;64845;53.086;5.834;2023-02-15T05:24:38;102753.47;;;0.06;78.30
76114;BME280;64845;53.086;5.834;2023-02-15T05:27:22;102751.72;;;0.06;78.13
76114;BME280;64845;53.086;5.834;2023-02-15T05:30:06;102753.47;;;0.06;78.77
76114;BME280;64845;53.086;5.834;2023-02-15T05:32:37;102751.69;;;0.05;78.54
76114;BME280;64845;53.086;5.834;2023-02-15T05:35:03;102750.75;;;0.04;78.61
76114;BME280;64845;53.086;5.834;2023-02-15T05:37:28;102757.75;;;0.04;78.37
76114;BME280;64845;53.086;5.834;2023-02-15T05:39:54;102756.81;;;0.02;78.35
76114;BME280;64845;53.086;5.834;2023-02-15T05:42:19;102755.88;;;-0.01;78.43
76114;BME280;64845;53.086;5.834;2023-02-15T05:44:44;102758.44;;;-0.02;78.27
76114;BME280;64845;53.086;5.834;2023-02-15T05:47:10;102752.25;;;-0.04;78.31
76114;BME280;64845;53.086;5.834;2023-02-15T05:49:35;102753.97;;;-0.05;78.48
76114;BME280;64845;53.086;5.834;2023-02-15T05:52:01;102749.53;;;-0.06;78.61
76114;BME280;64845;53.086;5.834;2023-02-15T05:54:27;102746.03;;;-0.06;78.64
76114;BME280;64845;53.086;5.834;2023-02-15T05:56:52;102752.16;;;-0.06;78.66
76114;BME280;64845;53.086;5.834;2023-02-15T05:59:18;102748.69;;;-0.05;78.53
76114;BME280;64845;53.086;5.834;2023-02-15T06:01:43;102755.81;;;-0.02;78.63
76114;BME280;64845;53.086;5.834;2023-02-15T06:04:08;102747.19;;;0.02;78.56
76114;BME280;64845;53.086;5.834;2023-02-15T06:06:34;102741.09;;;0.03;78.60
76114;BME280;64845;53.086;5.834;2023-02-15T06:08:59;102751.72;;;0.06;78.48
76114;BME280;64845;53.086;5.834;2023-02-15T06:11:25;102744.78;;;0.08;78.65
76114;BME280;64845;53.086;5.834;2023-02-15T06:13:50;102742.19;;;0.10;78.52
76114;BME280;64845;53.086;5.834;2023-02-15T06:16:16;102740.50;;;0.10;78.78
76114;BME280;64845;53.086;5.834;2023-02-15T06:18:41;102738.75;;;0.11;78.52
76114;BME280;64845;53.086;5.834;2023-02-15T06:21:07;102736.06;;;0.09;78.37
76114;BME280;64845;53.086;5.834;2023-02-15T06:23:32;102729.97;;;0.10;78.34
76114;BME280;64845;53.086;5.834;2023-02-15T06:25:57;102736.06;;;0.09;78.64
76114;BME280;64845;53.086;5.834;2023-02-15T06:28:23;102734.28;;;0.08;78.63
76114;BME280;64845;53.086;5.834;2023-02-15T06:30:50;102726.34;;;0.07;78.68
76114;BME280;64845;53.086;5.834;2023-02-15T06:33:16;102723.72;;;0.07;78.84
76114;BME280;64845;53.086;5.834;2023-02-15T06:35:41;102722.81;;;0.06;78.75
76114;BME280;64845;53.086;5.834;2023-02-15T06:38:06;102734.25;;;0.07;78.64
76114;BME280;64845;53.086;5.834;2023-02-15T06:40:32;102731.63;;;0.07;78.74
76114;BME280;64845;53.086;5.834;2023-02-15T06:42:57;102733.41;;;0.08;78.60
76114;BME280;64845;53.086;5.834;2023-02-15T06:45:22;102742.16;;;0.08;79.00
76114;BME280;64845;53.086;5.834;2023-02-15T06:47:48;102737.84;;;0.10;78.80
76114;BME280;64845;53.086;5.834;2023-02-15T06:50:13;102744.91;;;0.11;78.67
76114;BME280;64845;53.086;5.834;2023-02-15T06:52:39;102734.44;;;0.13;78.49
76114;BME280;64845;53.086;5.834;2023-02-15T06:55:04;102736.34;;;0.17;78.92
76114;BME280;64845;53.086;5.834;2023-02-15T06:57:30;102735.53;;;0.20;79.05
76114;BME280;64845;53.086;5.834;2023-02-15T06:59:55;102728.56;;;0.20;78.95
76114;BME280;64845;53.086;5.834;2023-02-15T07:02:23;102735.72;;;0.24;79.10
76114;BME280;64845;53.086;5.834;2023-02-15T07:04:48;102726.09;;;0.25;78.56
76114;BME280;64845;53.086;5.834;2023-02-15T07:07:14;102727.03;;;0.27;78.69
76114;BME280;64845;53.086;5.834;2023-02-15T07:09:39;102720.06;;;0.27;78.94
76114;BME280;64845;53.086;5.834;2023-02-15T07:12:05;102723.59;;;0.29;78.99
76114;BME280;64845;53.086;5.834;2023-02-15T07:14:49;102721.94;;;0.32;78.71
76114;BME280;64845;53.086;5.834;2023-02-15T07:17:15;102715.84;;;0.33;78.89
76114;BME280;64845;53.086;5.834;2023-02-15T07:19:40;102720.25;;;0.34;79.04
76114;BME280;64845;53.086;5.834;2023-02-15T07:22:06;102719.47;;;0.36;78.83
76114;BME280;64845;53.086;5.834;2023-02-15T07:24:31;102728.25;;;0.37;79.04
76114;BME280;64845;53.086;5.834;2023-02-15T07:26:57;102723.94;;;0.39;78.89
76114;BME280;64845;53.086;5.834;2023-02-15T07:29:23;102717.88;;;0.41;79.12
76114;BME280;64845;53.086;5.834;2023-02-15T07:31:49;102721.53;;;0.45;79.06
76114;BME280;64845;53.086;5.834;2023-02-15T07:34:14;102712.00;;;0.49;79.58
76114;BME280;64845;53.086;5.834;2023-02-15T07:36:41;102709.47;;;0.52;79.33
76114;BME280;64845;53.086;5.834;2023-02-15T07:39:06;102709.63;;;0.56;79.42
76114;BME280;64845;53.086;5.834;2023-02-15T07:41:31;102715.81;;;0.58;79.53
76114;BME280;64845;53.086;5.834;2023-02-15T07:43:57;102712.38;;;0.61;79.20
76114;BME280;64845;53.086;5.834;2023-02-15T07:46:22;102710.78;;;0.65;79.65
76114;BME280;64845;53.086;5.834;2023-02-15T07:48:47;102703.03;;;0.69;79.38
76114;BME280;64845;53.086;5.834;2023-02-15T07:51:14;102712.84;;;0.75;79.21
76114;BME280;64845;53.086;5.834;2023-02-15T07:53:40;102711.25;;;0.80;79.44
76114;BME280;64845;53.086;5.834;2023-02-15T07:56:09;102716.66;;;0.85;79.49
76114;BME280;64845;53.086;5.834;2023-02-15T07:58:35;102709.75;;;0.88;79.58
76114;BME280;64845;53.086;5.834;2023-02-15T08:01:27;102705.59;;;0.95;79.74
76114;BME280;64845;53.086;5.834;2023-02-15T08:03:54;102700.50;;;1.01;79.42
76114;BME280;64845;53.086;5.834;2023-02-15T08:06:22;102698.91;;;1.07;79.52
76114;BME280;64845;53.086;5.834;2023-02-15T08:08:47;102702.59;;;1.12;79.75
76114;BME280;64845;53.086;5.834;2023-02-15T08:11:25;102696.59;;;1.16;79.71
76114;BME280;64845;53.086;5.834;2023-02-15T08:13:52;102693.22;;;1.22;80.05
76114;BME280;64845;53.086;5.834;2023-02-15T08:17:14;102685.47;;;1.26;79.69
76114;BME280;64845;53.086;5.834;2023-02-15T08:19:18;102687.34;;;1.30;80.06
76114;BME280;64845;53.086;5.834;2023-02-15T08:21:46;102690.09;;;1.35;80.08
76114;BME280;64845;53.086;5.834;2023-02-15T08:24:16;102684.09;;;1.39;79.62
76114;BME280;64845;53.086;5.834;2023-02-15T08:26:42;102679.00;;;1.45;80.07
76114;BME280;64845;53.086;5.834;2023-02-15T08:29:10;102679.13;;;1.50;80.05
76114;BME280;64845;53.086;5.834;2023-02-15T08:31:36;102673.13;;;1.54;79.90
76114;BME280;64845;53.086;5.834;2023-02-15T08:34:03;102674.13;;;1.59;79.60
76114;BME280;64845;53.086;5.834;2023-02-15T08:36:29;102669.88;;;1.64;79.87
76114;BME280;64845;53.086;5.834;2023-02-15T08:39:01;102662.94;;;1.68;79.55
76114;BME280;64845;53.086;5.834;2023-02-15T08:41:35;102659.56;;;1.72;79.64
76114;BME280;64845;53.086;5.834;2023-02-15T08:44:04;102662.34;;;1.78;79.92
76114;BME280;64845;53.086;5.834;2023-02-15T08:46:32;102661.59;;;1.83;80.06
76114;BME280;64845;53.086;5.834;2023-02-15T08:48:58;102651.22;;;1.89;80.11
76114;BME280;64845;53.086;5.834;2023-02-15T08:51:26;102643.44;;;1.93;80.51
76114;BME280;64845;53.086;5.834;2023-02-15T08:53:54;102654.13;;;2.00;79.96
76114;BME280;64845;53.086;5.834;2023-02-15T08:56:22;102642.88;;;2.05;79.99
76114;BME280;64845;53.086;5.834;2023-02-15T08:58:48;102643.94;;;2.14;80.25
76114;BME280;64845;53.086;5.834;2023-02-15T09:01:16;102644.97;;;2.20;80.18
76114;BME280;64845;53.086;5.834;2023-02-15T09:03:44;102646.88;;;2.26;80.14
76114;BME280;64845;53.086;5.834;2023-02-15T09:06:09;102639.19;;;2.34;80.02
76114;BME280;64845;53.086;5.834;2023-02-15T09:08:34;102638.47;;;2.41;79.95
76114;BME280;64845;53.086;5.834;2023-02-15T09:11:11;102633.38;;;2.49;79.52
76114;BME280;64845;53.086;5.834;2023-02-15T09:13:37;102627.38;;;2.56;80.78
76114;BME280;64845;53.086;5.834;2023-02-15T09:16:06;102631.97;;;2.63;80.35
76114;BME280;64845;53.086;5.834;2023-02-15T09:18:34;102630.38;;;2.71;80.38
76114;BME280;64845;53.086;5.834;2023-02-15T09:21:06;102629.66;;;2.79;80.00
76114;BME280;64845;53.086;5.834;2023-02-15T09:23:32;102629.84;;;2.86;80.61
76114;BME280;64845;53.086;5.834;2023-02-15T09:26:02;102625.56;;;2.93;80.07
76114;BME280;64845;53.086;5.834;2023-02-15T09:28:28;102632.78;;;3.00;80.01
76114;BME280;64845;53.086;5.834;2023-02-15T09:30:53;102637.31;;;3.08;80.69
76114;BME280;64845;53.086;5.834;2023-02-15T09:33:19;102637.44;;;3.14;80.15
76114;BME280;64845;53.086;5.834;2023-02-15T10:10:04;102629.13;;;3.84;80.13
76114;BME280;64845;53.086;5.834;2023-02-15T10:21:07;102639.44;;;4.21;80.01
76114;BME280;64845;53.086;5.834;2023-02-15T10:24:08;102630.81;;;4.31;79.85
76114;BME280;64845;53.086;5.834;2023-02-15T10:26:47;102626.56;;;4.41;80.14
76114;BME280;64845;53.086;5.834;2023-02-15T10:29:36;102628.47;;;4.50;80.20
76114;BME280;64845;53.086;5.834;2023-02-15T10:32:24;102622.38;;;4.57;80.20
76114;BME280;64845;53.086;5.834;2023-02-15T10:40:51;102622.72;;;4.82;80.12
76114;BME280;64845;53.086;5.834;2023-02-15T10:54:28;102601.25;;;5.26;80.13
76114;BME280;64845;53.086;5.834;2023-02-15T11:07:53;102587.63;;;5.77;79.88
76114;BME280;64845;53.086;5.834;2023-02-15T11:10:40;102587.72;;;5.88;80.09
76114;BME280;64845;53.086;5.834;2023-02-15T11:13:14;102584.25;;;5.95;79.89
76114;BME280;64845;53.086;5.834;2023-02-15T11:18:25;102584.44;;;6.14;79.67
76114;BME280;64845;53.086;5.834;2023-02-15T11:21:14;102575.63;;;6.21;79.94
76114;BME280;64845;53.086;5.834;2023-02-15T11:23:46;102579.22;;;6.28;79.73
76114;BME280;64845;53.086;5.834;2023-02-15T11:26:34;102574.88;;;6.34;79.72
76114;BME280;64845;53.086;5.834;2023-02-15T11:29:21;102565.19;;;6.41;79.73
76114;BME280;64845;53.086;5.834;2023-02-15T11:31:54;102566.09;;;6.48;79.56
76114;BME280;64845;53.086;5.834;2023-02-15T11:34:31;102567.91;;;6.55;79.86
76114;BME280;64845;53.086;5.834;2023-02-15T11:37:01;102566.19;;;6.65;79.67
76114;BME280;64845;53.086;5.834;2023-02-15T11:39:30;102556.50;;;6.73;79.15
76114;BME280;64845;53.086;5.834;2023-02-15T11:42:00;102544.16;;;6.82;79.43
76114;BME280;64845;53.086;5.834;2023-02-15T11:44:31;102550.38;;;6.88;79.47
76114;BME280;64845;53.086;5.834;2023-02-15T11:46:58;102541.53;;;6.92;79.31
76114;BME280;64845;53.086;5.834;2023-02-15T11:51:53;102525.63;;;7.05;79.01
76114;BME280;64845;53.086;5.834;2023-02-15T11:54:23;102527.44;;;7.09;79.20
76114;BME280;64845;53.086;5.834;2023-02-15T11:56:51;102525.69;;;7.14;79.11
76114;BME280;64845;53.086;5.834;2023-02-15T11:59:24;102528.31;;;7.20;78.73
76114;BME280;64845;53.086;5.834;2023-02-15T12:01:52;102519.50;;;7.24;78.68
76114;BME280;64845;53.086;5.834;2023-02-15T12:04:46;102519.50;;;7.31;78.70
76114;BME280;64845;53.086;5.834;2023-02-15T12:07:24;102507.13;;;7.37;78.57
76114;BME280;64845;53.086;5.834;2023-02-15T12:09:58;102500.91;;;7.43;78.75
76114;BME280;64845;53.086;5.834;2023-02-15T12:12:28;102503.59;;;7.49;78.49
76114;BME280;64845;53.086;5.834;2023-02-15T12:14:55;102494.72;;;7.56;78.63
76114;BME280;64845;53.086;5.834;2023-02-15T12:17:24;102493.84;;;7.62;78.37
76114;BME280;64845;53.086;5.834;2023-02-15T12:19:55;102479.66;;;7.68;78.47
76114;BME280;64845;53.086;5.834;2023-02-15T12:22:23;102481.44;;;7.72;78.40
76114;BME280;64845;53.086;5.834;2023-02-15T12:24:49;102481.41;;;7.78;78.05
76114;BME280;64845;53.086;5.834;2023-02-15T12:27:23;102487.63;;;7.83;77.88
76114;BME280;64845;53.086;5.834;2023-02-15T12:29:53;102480.50;;;7.87;77.63
76114;BME280;64845;53.086;5.834;2023-02-15T12:32:31;102469.88;;;7.90;77.78
76114;BME280;64845;53.086;5.834;2023-02-15T12:35:07;102470.78;;;7.92;77.72
76114;BME280;64845;53.086;5.834;2023-02-15T12:37:34;102462.81;;;7.94;77.53
76114;BME280;64845;53.086;5.834;2023-02-15T12:40:02;102468.09;;;7.97;77.33
76114;BME280;64845;53.086;5.834;2023-02-15T12:42:41;102465.44;;;7.98;77.34
76114;BME280;64845;53.086;5.834;2023-02-15T12:45:27;102463.66;;;8.00;77.45
76114;BME280;64845;53.086;5.834;2023-02-15T12:50:42;102466.34;;;8.04;77.04
76114;BME280;64845;53.086;5.834;2023-02-15T12:53:21;102461.00;;;8.05;76.76
76114;BME280;64845;53.086;5.834;2023-02-15T12:55:55;102455.66;;;8.08;76.87
76114;BME280;64845;53.086;5.834;2023-02-15T12:58:23;102466.31;;;8.08;76.61
76114;BME280;64845;53.086;5.834;2023-02-15T13:03:28;102468.97;;;8.10;76.32
76114;BME280;64845;53.086;5.834;2023-02-15T13:05:55;102460.09;;;8.12;76.09
76114;BME280;64845;53.086;5.834;2023-02-15T13:13:31;102461.84;;;8.23;76.07
76114;BME280;64845;53.086;5.834;2023-02-15T13:16:10;102462.72;;;8.25;75.83
76114;BME280;64845;53.086;5.834;2023-02-15T13:18:38;102453.84;;;8.26;75.58
76114;BME280;64845;53.086;5.834;2023-02-15T13:21:14;102454.72;;;8.26;75.61
76114;BME280;64845;53.086;5.834;2023-02-15T13:26:55;102446.75;;;8.28;75.30
76114;BME280;64845;53.086;5.834;2023-02-15T13:29:25;102454.72;;;8.26;74.91
76114;BME280;64845;53.086;5.834;2023-02-15T13:31:52;102446.75;;;8.28;74.85
76114;BME280;64845;53.086;5.834;2023-02-15T13:34:28;102439.66;;;8.30;75.12
76114;BME280;64845;53.086;5.834;2023-02-15T13:39:38;102443.16;;;8.35;75.07
76114;BME280;64845;53.086;5.834;2023-02-15T13:42:24;102434.28;;;8.35;74.71
76114;BME280;64845;53.086;5.834;2023-02-15T13:50:38;102436.06;;;8.34;74.57
76114;BME280;64845;53.086;5.834;2023-02-15T13:53:20;102421.88;;;8.34;74.50
76114;BME280;64845;53.086;5.834;2023-02-15T13:55:53;102427.22;;;8.32;74.39
76114;BME280;64845;53.086;5.834;2023-02-15T14:17:47;102403.22;;;8.40;73.81
76114;BME280;64845;53.086;5.834;2023-02-15T14:25:42;102401.44;;;8.43;73.25
76114;BME280;64845;53.086;5.834;2023-02-15T14:28:34;102396.09;;;8.46;72.88
76114;BME280;64845;53.086;5.834;2023-02-15T14:31:03;102395.22;;;8.49;73.01
76114;BME280;64845;53.086;5.834;2023-02-15T14:33:33;102395.22;;;8.51;72.73
76114;BME280;64845;53.086;5.834;2023-02-15T14:36:00;102402.31;;;8.52;72.64
76114;BME280;64845;53.086;5.834;2023-02-15T14:38:43;102401.41;;;8.54;72.63
76114;BME280;64845;53.086;5.834;2023-02-15T14:41:29;102398.72;;;8.56;72.60
76114;BME280;64845;53.086;5.834;2023-02-15T14:44:15;102397.84;;;8.58;72.15
76114;BME280;64845;53.086;5.834;2023-02-15T14:46:52;102384.50;;;8.60;72.20
76114;BME280;64845;53.086;5.834;2023-02-15T14:49:24;102388.97;;;8.59;72.00
76114;BME280;64845;53.086;5.834;2023-02-15T14:56:41;102396.94;;;8.58;72.05
76114;BME280;64845;53.086;5.834;2023-02-15T14:59:15;102393.41;;;8.56;71.86
76114;BME280;64845;53.086;5.834;2023-02-15T15:01:42;102392.53;;;8.55;72.05
76114;BME280;64845;53.086;5.834;2023-02-15T15:07:46;102367.69;;;8.47;72.00
76114;BME280;64845;53.086;5.834;2023-02-15T15:12:57;102385.47;;;8.42;72.13
76114;BME280;64845;53.086;5.834;2023-02-15T15:18:06;102374.88;;;8.31;72.07
76114;BME280;64845;53.086;5.834;2023-02-15T15:20:45;102375.78;;;8.27;72.08
76114;BME280;64845;53.086;5.834;2023-02-15T15:28:06;102368.75;;;8.13;71.81
76114;BME280;64845;53.086;5.834;2023-02-15T15:35:48;102366.13;;;8.04;71.63
76114;BME280;64845;53.086;5.834;2023-02-15T15:41:17;102349.28;;;8.00;71.72
76114;BME280;64845;53.086;5.834;2023-02-15T15:49:28;102343.09;;;7.89;71.56
76114;BME280;64845;53.086;5.834;2023-02-15T15:51:59;102351.97;;;7.88;71.70
76114;BME280;64845;53.086;5.834;2023-02-15T15:54:26;102344.00;;;7.83;71.75
76114;BME280;64845;53.086;5.834;2023-02-15T15:56:58;102347.59;;;7.81;71.91
76114;BME280;64845;53.086;5.834;2023-02-15T15:59:31;102346.69;;;7.76;71.67
76114;BME280;64845;53.086;5.834;2023-02-15T16:02:04;102347.59;;;7.68;72.03
76114;BME280;64845;53.086;5.834;2023-02-15T16:04:34;102348.53;;;7.64;72.04
76114;BME280;64845;53.086;5.834;2023-02-15T16:09:55;102344.09;;;7.52;72.31
76114;BME280;64845;53.086;5.834;2023-02-15T16:12:21;102356.50;;;7.47;72.11
76114;BME280;64845;53.086;5.834;2023-02-15T16:14:47;102347.66;;;7.40;72.08
76114;BME280;64845;53.086;5.834;2023-02-15T16:17:26;102345.91;;;7.35;72.28
76114;BME280;64845;53.086;5.834;2023-02-15T16:20:00;102336.16;;;7.29;72.43